Aviation Digital Data Service (ADDS)

Output produced by TAFs form (1739 UTC 21 April 2018)
found at http://aviationweather.gov/adds/tafs/
 
TAF RJCB 211707Z 2118/2300 34006KT 9999 FEW050 
     BECMG 2203/2205 15012KT 
     TEMPO 2209/2215 FEW002 BKN005 
     TEMPO 2215/2221 1500 BR FEW001 BKN003 
     TEMPO 2221/2300 3000 BR FEW003 BKN006